Time;durP1;ratioP1;P1;durP2;ratioP2;P2;SDS_P1;SDS_P2;PMS_P1;PMS_P2;Temp;Humidity;BMP_temperature;BMP_pressure;BME280_temperature;BME280_humidity;BME280_pressure;Samples;Min_cycle;Max_cycle;Signal;HPM_P1;HPM_P2
2021/11/18 00:00:11;;;;;;;1.27;1.10;;;7.10;98.00;;;;;;5074833;28;20495;-69
2021/11/18 00:02:39;;;;;;;1.87;1.27;;;7.00;98.00;;;;;;5074862;28;20449;-69
2021/11/18 00:05:07;;;;;;;1.20;1.00;;;6.90;98.00;;;;;;5074611;28;20509;-69
2021/11/18 00:07:35;;;;;;;1.20;1.20;;;7.00;98.00;;;;;;5074793;28;20846;-69
2021/11/18 00:10:02;;;;;;;2.40;1.20;;;7.10;98.00;;;;;;5074634;28;20478;-69
2021/11/18 00:12:31;;;;;;;1.40;1.17;;;7.20;98.00;;;;;;5074626;28;20460;-69
2021/11/18 00:14:58;;;;;;;1.40;1.27;;;7.20;98.00;;;;;;5074409;28;20462;-69
2021/11/18 00:17:26;;;;;;;1.40;1.20;;;7.10;98.00;;;;;;5072563;28;20450;-69
2021/11/18 00:19:54;;;;;;;1.50;1.27;;;7.00;98.00;;;;;;5074478;28;20512;-69
2021/11/18 00:22:21;;;;;;;1.70;1.43;;;7.00;98.00;;;;;;5073303;28;20462;-69
2021/11/18 00:24:56;;;;;;;1.10;1.00;;;6.90;98.00;;;;;;5074466;28;20464;-69
2021/11/18 00:27:23;;;;;;;1.50;1.30;;;6.80;98.00;;;;;;5074443;28;20944;-69
2021/11/18 00:29:52;;;;;;;1.97;1.40;;;6.90;98.00;;;;;;5074371;28;20479;-69
2021/11/18 00:32:19;;;;;;;1.40;1.27;;;6.90;98.00;;;;;;5074372;28;20458;-69
2021/11/18 00:34:46;;;;;;;1.90;1.77;;;7.00;98.00;;;;;;5074254;28;20530;-69
2021/11/18 00:37:13;;;;;;;2.80;1.10;;;7.00;98.00;;;;;;5073132;28;20514;-69
2021/11/18 00:39:40;;;;;;;1.83;1.57;;;7.00;98.00;;;;;;5074120;28;20531;-69
2021/11/18 00:42:08;;;;;;;1.73;1.57;;;7.10;98.00;;;;;;5074393;28;20456;-69
2021/11/18 00:44:35;;;;;;;1.30;1.30;;;7.30;98.00;;;;;;5073970;28;20516;-69
2021/11/18 00:47:05;;;;;;;1.63;1.00;;;7.30;98.00;;;;;;5073815;28;20457;-69
2021/11/18 00:49:32;;;;;;;1.20;1.17;;;7.20;98.00;;;;;;5072739;28;20511;-69
2021/11/18 00:51:59;;;;;;;1.90;1.83;;;7.30;98.00;;;;;;5073723;28;20563;-69
2021/11/18 00:54:26;;;;;;;1.20;1.10;;;7.20;98.00;;;;;;5073709;28;20462;-69
2021/11/18 00:56:53;;;;;;;2.07;1.20;;;7.10;98.00;;;;;;5073703;28;20854;-69
2021/11/18 00:59:20;;;;;;;1.30;1.20;;;7.10;98.00;;;;;;5073779;28;20540;-69
2021/11/18 01:01:50;;;;;;;1.60;1.53;;;7.00;98.00;;;;;;5073705;28;20458;-69
2021/11/18 01:04:20;;;;;;;2.43;1.23;;;7.00;98.00;;;;;;5073119;28;20463;-69
2021/11/18 01:06:48;;;;;;;1.30;1.17;;;7.10;98.00;;;;;;5073670;28;20945;-69
2021/11/18 01:09:15;;;;;;;1.40;1.20;;;7.20;98.00;;;;;;5073566;28;20516;-69
2021/11/18 01:11:43;;;;;;;1.20;1.20;;;7.40;98.00;;;;;;5073327;28;20545;-69
2021/11/18 01:14:13;;;;;;;1.80;1.60;;;7.50;98.00;;;;;;5073293;28;20515;-69
2021/11/18 01:16:41;;;;;;;1.20;1.00;;;7.50;98.00;;;;;;5072166;28;20512;-69
2021/11/18 01:19:09;;;;;;;1.50;1.13;;;7.40;98.00;;;;;;5073226;28;20462;-69
2021/11/18 01:21:39;;;;;;;1.93;1.30;;;7.30;98.00;;;;;;5073219;28;21158;-69
2021/11/18 01:24:07;;;;;;;1.80;1.73;;;7.10;98.00;;;;;;5073055;28;20512;-69
2021/11/18 01:26:34;;;;;;;2.23;1.40;;;7.10;98.00;;;;;;5073183;28;20503;-69
2021/11/18 01:29:02;;;;;;;1.20;1.10;;;7.30;98.00;;;;;;5073083;28;20461;-69
2021/11/18 01:31:30;;;;;;;2.70;1.63;;;7.20;98.00;;;;;;5073156;28;20486;-69
2021/11/18 01:33:57;;;;;;;2.87;1.53;;;7.10;98.00;;;;;;5072932;28;20469;-69
2021/11/18 01:36:24;;;;;;;1.70;1.20;;;7.00;98.00;;;;;;5072958;28;20463;-69
2021/11/18 01:38:53;;;;;;;1.90;1.80;;;7.00;98.00;;;;;;5072861;28;20450;-69
2021/11/18 01:41:22;;;;;;;1.60;1.47;;;7.00;98.00;;;;;;5072894;28;20506;-69
2021/11/18 01:43:52;;;;;;;2.13;1.30;;;7.00;98.00;;;;;;5072747;28;20506;-69
2021/11/18 01:46:22;;;;;;;1.50;1.37;;;7.00;98.00;;;;;;5073085;28;21076;-69
2021/11/18 01:48:50;;;;;;;1.60;1.20;;;7.10;98.00;;;;;;5072851;28;20505;-69
2021/11/18 01:51:18;;;;;;;1.10;1.00;;;7.30;98.00;;;;;;5070902;28;20477;-69
2021/11/18 01:53:47;;;;;;;1.20;1.10;;;7.30;98.00;;;;;;5072766;28;20507;-69
2021/11/18 01:56:18;;;;;;;1.73;1.23;;;7.10;98.00;;;;;;5072904;28;21036;-69
2021/11/18 01:58:47;;;;;;;1.40;1.30;;;7.10;98.00;;;;;;5072542;28;20456;-69
2021/11/18 02:01:15;;;;;;;1.20;1.10;;;7.10;98.00;;;;;;5072357;28;20548;-69
2021/11/18 02:03:43;;;;;;;1.43;1.20;;;7.20;98.00;;;;;;5071185;28;20541;-69
2021/11/18 02:06:15;;;;;;;1.80;1.43;;;7.40;98.00;;;;;;5072536;28;20452;-69
2021/11/18 02:08:42;;;;;;;3.73;1.73;;;7.40;98.00;;;;;;5072225;28;20460;-69
2021/11/18 02:11:21;;;;;;;1.27;1.10;;;7.50;98.00;;;;;;5072228;28;20485;-69
2021/11/18 02:13:48;;;;;;;1.60;1.60;;;7.50;98.00;;;;;;5072141;28;20890;-69
2021/11/18 02:16:15;;;;;;;1.40;1.40;;;7.50;98.00;;;;;;5072227;28;20463;-69
2021/11/18 02:18:42;;;;;;;1.90;1.20;;;7.30;98.00;;;;;;5071888;28;20456;-69
2021/11/18 02:21:13;;;;;;;1.10;1.00;;;7.10;98.00;;;;;;5072219;28;20485;-69
2021/11/18 02:23:44;;;;;;;1.80;1.67;;;7.10;98.00;;;;;;5071729;28;20457;-69
2021/11/18 02:26:12;;;;;;;1.60;1.50;;;7.10;98.00;;;;;;5071413;28;20454;-69
2021/11/18 02:28:43;;;;;;;1.20;1.00;;;7.10;98.00;;;;;;5071146;28;21007;-69
2021/11/18 02:31:17;;;;;;;2.27;1.50;;;7.10;98.00;;;;;;5071489;28;21047;-69
2021/11/18 02:33:45;;;;;;;1.20;1.10;;;7.20;98.00;;;;;;5071797;28;20495;-69
2021/11/18 02:36:14;;;;;;;1.57;1.40;;;7.40;98.00;;;;;;5072116;28;20461;-69
2021/11/18 02:38:42;;;;;;;1.10;1.00;;;7.30;98.00;;;;;;5071831;28;20457;-69
2021/11/18 02:41:11;;;;;;;1.20;1.10;;;7.40;98.00;;;;;;5071881;28;20544;-69
2021/11/18 02:43:39;;;;;;;1.17;1.00;;;7.60;98.00;;;;;;5071480;28;20490;-69
2021/11/18 02:46:07;;;;;;;2.07;1.27;;;7.60;98.00;;;;;;5071770;28;20511;-69
2021/11/18 02:48:34;;;;;;;1.57;1.40;;;7.50;98.00;;;;;;5071676;28;20504;-69
2021/11/18 02:51:04;;;;;;;1.40;1.30;;;7.50;98.00;;;;;;5071561;28;20490;-69
2021/11/18 02:53:33;;;;;;;1.30;1.10;;;7.40;98.00;;;;;;5071789;28;20459;-69
2021/11/18 02:56:01;;;;;;;3.20;2.33;;;7.30;98.00;;;;;;5071313;28;20456;-69
2021/11/18 02:58:29;;;;;;;2.47;1.43;;;7.10;98.00;;;;;;5071644;28;20448;-69
2021/11/18 03:01:00;;;;;;;1.43;1.07;;;7.00;98.00;;;;;;5071730;28;20452;-69
2021/11/18 03:03:28;;;;;;;1.30;1.20;;;6.90;98.00;;;;;;5071561;28;20465;-69
2021/11/18 03:05:59;;;;;;;1.27;1.23;;;7.00;98.00;;;;;;5070630;28;20528;-69
2021/11/18 03:08:27;;;;;;;2.00;1.27;;;7.00;98.00;;;;;;5071586;28;20452;-69
2021/11/18 03:10:57;;;;;;;1.43;1.30;;;7.10;98.00;;;;;;5071587;28;20533;-69
2021/11/18 03:13:28;;;;;;;1.40;1.13;;;7.10;98.00;;;;;;5071999;28;20486;-69
2021/11/18 03:15:57;;;;;;;1.10;1.00;;;7.10;98.00;;;;;;5071850;28;20498;-69
2021/11/18 03:18:25;;;;;;;1.17;1.10;;;7.20;98.00;;;;;;5071751;28;20515;-69
2021/11/18 03:20:52;;;;;;;1.50;1.50;;;7.30;98.00;;;;;;5071113;28;20527;-69
2021/11/18 03:23:20;;;;;;;1.20;1.00;;;7.10;98.00;;;;;;5071504;28;20467;-69
2021/11/18 03:25:48;;;;;;;1.20;1.20;;;7.00;98.00;;;;;;5071407;28;20460;-69
2021/11/18 03:28:18;;;;;;;1.30;1.20;;;6.90;98.00;;;;;;5071237;28;20455;-69
2021/11/18 03:30:48;;;;;;;1.30;1.17;;;6.80;98.00;;;;;;5071325;28;20465;-69
2021/11/18 03:33:18;;;;;;;1.50;1.13;;;6.80;98.00;;;;;;5071433;28;20481;-69
2021/11/18 03:35:45;;;;;;;3.23;1.93;;;6.90;98.00;;;;;;5071113;28;20954;-69
2021/11/18 03:38:15;;;;;;;1.30;1.20;;;7.10;98.00;;;;;;5071242;28;20461;-69
2021/11/18 03:40:44;;;;;;;1.93;1.67;;;7.20;98.00;;;;;;5070891;28;20479;-69
2021/11/18 03:43:11;;;;;;;1.93;1.30;;;7.30;98.00;;;;;;5071229;28;20463;-69
2021/11/18 03:45:40;;;;;;;1.30;1.10;;;7.30;98.00;;;;;;5071160;28;20929;-69
2021/11/18 03:48:09;;;;;;;1.20;1.20;;;7.20;98.00;;;;;;5069934;28;20565;-69
2021/11/18 03:50:36;;;;;;;2.27;1.47;;;7.40;98.00;;;;;;5071024;28;20487;-69
2021/11/18 03:53:04;;;;;;;2.17;1.30;;;7.40;98.00;;;;;;5070276;28;20490;-69
2021/11/18 03:55:32;;;;;;;3.23;1.43;;;7.30;98.00;;;;;;5071124;28;20452;-69
2021/11/18 03:57:59;;;;;;;1.10;1.10;;;7.40;98.00;;;;;;5071017;28;20509;-69
2021/11/18 04:00:31;;;;;;;1.10;0.90;;;7.40;98.00;;;;;;5071128;28;20458;-69
2021/11/18 04:03:00;;;;;;;1.30;1.23;;;7.30;98.00;;;;;;5071016;28;20937;-69
2021/11/18 04:05:30;;;;;;;1.87;1.30;;;7.20;98.00;;;;;;5071186;28;20862;-69
2021/11/18 04:07:57;;;;;;;2.43;1.57;;;7.30;98.00;;;;;;5070948;28;20466;-69
2021/11/18 04:10:27;;;;;;;2.17;1.60;;;7.40;98.00;;;;;;5069748;28;20488;-69
2021/11/18 04:12:55;;;;;;;1.70;1.67;;;7.40;98.00;;;;;;5071150;28;20493;-69
2021/11/18 04:15:27;;;;;;;1.47;1.37;;;7.40;98.00;;;;;;5072729;28;20466;-69
2021/11/18 04:17:55;;;;;;;1.83;1.30;;;7.30;98.00;;;;;;5074720;28;20465;-69
2021/11/18 04:20:24;;;;;;;1.13;1.10;;;7.20;98.00;;;;;;5074743;28;20488;-69
2021/11/18 04:22:53;;;;;;;1.10;1.00;;;7.20;98.00;;;;;;5074712;28;20509;-69
2021/11/18 04:25:27;;;;;;;1.20;1.20;;;7.20;98.00;;;;;;5074561;28;20522;-69
2021/11/18 04:27:54;;;;;;;1.10;0.90;;;7.20;98.00;;;;;;5074728;28;20941;-69
2021/11/18 04:30:39;;;;;;;1.57;1.53;;;7.40;98.00;;;;;;5074525;28;20506;-69
2021/11/18 04:33:06;;;;;;;1.20;1.10;;;7.40;98.00;;;;;;5074137;28;20485;-69
2021/11/18 04:35:36;;;;;;;1.10;1.07;;;7.50;98.00;;;;;;5072930;28;20975;-69
2021/11/18 04:38:03;;;;;;;1.20;1.13;;;7.50;98.00;;;;;;5074203;28;20462;-69
2021/11/18 04:40:32;;;;;;;1.30;1.23;;;7.50;98.00;;;;;;5073956;28;20518;-69
2021/11/18 04:43:00;;;;;;;1.30;1.30;;;7.70;98.00;;;;;;5073773;28;20493;-69
2021/11/18 04:45:27;;;;;;;2.00;1.10;;;7.60;98.00;;;;;;5073923;28;20529;-69
2021/11/18 04:47:54;;;;;;;2.20;1.40;;;7.60;98.00;;;;;;5074022;28;20562;-69
2021/11/18 04:50:22;;;;;;;2.20;1.50;;;7.60;98.00;;;;;;5072412;28;20453;-69
2021/11/18 04:52:51;;;;;;;2.83;1.40;;;7.50;98.00;;;;;;5073863;28;20482;-69
2021/11/18 04:55:22;;;;;;;1.10;1.10;;;7.40;98.00;;;;;;5073697;28;20449;-69
2021/11/18 04:57:50;;;;;;;1.10;1.10;;;7.40;98.00;;;;;;5073799;28;20480;-69
2021/11/18 05:00:25;;;;;;;3.00;1.70;;;7.40;98.00;;;;;;5073701;28;20492;-69
2021/11/18 05:02:53;;;;;;;2.33;1.60;;;7.50;98.00;;;;;;5073733;28;20462;-69
2021/11/18 05:05:22;;;;;;;1.50;1.50;;;7.50;98.00;;;;;;5073530;28;20475;-69
2021/11/18 05:07:51;;;;;;;1.10;1.10;;;7.50;98.00;;;;;;5073641;28;21048;-69
2021/11/18 05:10:18;;;;;;;1.10;1.00;;;7.40;98.00;;;;;;5073500;28;20464;-69
2021/11/18 05:12:45;;;;;;;1.27;1.10;;;7.40;98.00;;;;;;5073496;28;20482;-69
2021/11/18 05:15:17;;;;;;;1.10;1.07;;;7.30;98.00;;;;;;5073203;28;20518;-69
2021/11/18 05:17:45;;;;;;;2.37;2.20;;;7.20;98.00;;;;;;5072447;28;20513;-69
2021/11/18 05:20:15;;;;;;;1.30;1.20;;;7.20;98.00;;;;;;5073464;28;20537;-69
2021/11/18 05:22:43;;;;;;;1.63;1.20;;;7.20;98.00;;;;;;5072255;28;20479;-69
2021/11/18 05:25:12;;;;;;;1.60;1.20;;;7.20;98.00;;;;;;5073284;28;20457;-69
2021/11/18 05:27:39;;;;;;;1.97;1.20;;;7.20;98.00;;;;;;5072399;28;20456;-69
2021/11/18 05:30:08;;;;;;;1.20;1.20;;;7.10;98.00;;;;;;5073176;28;20459;-69
2021/11/18 05:32:36;;;;;;;1.93;1.87;;;7.10;98.00;;;;;;5073413;28;20485;-69
2021/11/18 05:35:03;;;;;;;1.17;1.10;;;7.10;98.00;;;;;;5073059;28;20921;-69
2021/11/18 05:37:31;;;;;;;1.30;1.30;;;7.10;98.00;;;;;;5073376;28;20465;-69
2021/11/18 05:39:58;;;;;;;1.30;1.20;;;7.10;98.00;;;;;;5073082;28;20570;-69
2021/11/18 05:42:27;;;;;;;1.10;1.10;;;7.10;98.00;;;;;;5073136;28;20457;-69
2021/11/18 05:44:54;;;;;;;3.00;1.40;;;7.20;98.00;;;;;;5072916;28;20774;-69
2021/11/18 05:47:22;;;;;;;1.10;1.10;;;7.10;98.00;;;;;;5072831;28;20974;-69
2021/11/18 05:49:49;;;;;;;1.97;1.60;;;7.10;98.00;;;;;;5087504;28;20823;-69
2021/11/18 05:52:16;;;;;;;2.07;1.60;;;7.20;98.00;;;;;;5072745;28;20535;-69
2021/11/18 05:54:43;;;;;;;1.30;1.17;;;7.20;98.00;;;;;;5072350;28;20456;-69
2021/11/18 05:57:10;;;;;;;1.30;1.20;;;7.30;98.00;;;;;;5072586;28;20526;-69
2021/11/18 05:59:39;;;;;;;1.10;1.00;;;7.30;98.00;;;;;;5072176;28;20518;-69
2021/11/18 06:02:06;;;;;;;1.20;1.20;;;7.30;98.00;;;;;;5072465;28;20469;-69
2021/11/18 06:04:33;;;;;;;1.70;1.43;;;7.20;98.00;;;;;;5072261;28;20506;-69
2021/11/18 06:07:00;;;;;;;2.00;1.30;;;7.20;98.00;;;;;;5072321;28;21000;-69
2021/11/18 06:09:27;;;;;;;4.03;1.40;;;7.10;98.00;;;;;;5071029;28;20457;-69
2021/11/18 06:11:54;;;;;;;1.87;1.30;;;7.20;98.00;;;;;;5072151;28;20512;-69
2021/11/18 06:14:21;;;;;;;2.90;1.20;;;7.20;98.00;;;;;;5071810;28;20974;-69
2021/11/18 06:16:50;;;;;;;1.83;1.63;;;7.20;98.00;;;;;;5072279;28;20460;-69
2021/11/18 06:19:17;;;;;;;1.77;1.13;;;7.20;98.00;;;;;;5072091;28;20513;-69
2021/11/18 06:21:47;;;;;;;1.10;1.03;;;7.10;98.00;;;;;;5071776;28;21013;-69
2021/11/18 06:24:18;;;;;;;1.37;1.20;;;7.10;98.00;;;;;;5072153;28;20459;-69
2021/11/18 06:26:46;;;;;;;1.70;1.40;;;7.10;98.00;;;;;;5072345;28;20453;-69
2021/11/18 06:29:19;;;;;;;1.20;1.00;;;7.10;98.00;;;;;;5072005;28;20457;-69
2021/11/18 06:31:46;;;;;;;1.43;1.27;;;7.20;98.00;;;;;;5072264;28;20490;-69
2021/11/18 06:34:15;;;;;;;1.20;1.13;;;7.20;98.00;;;;;;5070840;28;20500;-69
2021/11/18 06:36:43;;;;;;;1.37;1.33;;;7.10;98.00;;;;;;5072085;28;20489;-69
2021/11/18 06:39:10;;;;;;;1.20;1.10;;;7.10;98.00;;;;;;5071696;28;20460;-69
2021/11/18 06:41:37;;;;;;;1.60;1.23;;;7.20;98.00;;;;;;5072041;28;20490;-69
2021/11/18 06:44:05;;;;;;;1.93;1.33;;;7.30;98.00;;;;;;5071471;28;21009;-69
2021/11/18 06:46:32;;;;;;;1.10;1.00;;;7.30;98.00;;;;;;5072091;28;20610;-69
2021/11/18 06:49:01;;;;;;;1.50;1.13;;;7.20;98.00;;;;;;5071988;28;20461;-69
2021/11/18 06:51:30;;;;;;;2.03;1.20;;;7.30;98.00;;;;;;5072003;28;20461;-69
2021/11/18 06:53:59;;;;;;;1.10;1.00;;;7.30;98.00;;;;;;5071872;28;20837;-69
2021/11/18 06:56:29;;;;;;;1.60;1.53;;;7.20;98.00;;;;;;5071940;28;20839;-69
2021/11/18 06:58:56;;;;;;;1.20;1.00;;;7.20;98.00;;;;;;5070112;28;20467;-69
2021/11/18 07:01:23;;;;;;;2.20;1.47;;;7.20;98.00;;;;;;5071528;28;20468;-69
2021/11/18 07:03:51;;;;;;;1.80;1.47;;;7.30;98.00;;;;;;5071586;28;20449;-69
2021/11/18 07:06:21;;;;;;;1.70;1.30;;;7.30;98.00;;;;;;5071452;28;20449;-69
2021/11/18 07:08:49;;;;;;;2.37;1.77;;;7.30;98.00;;;;;;5071576;28;21000;-69
2021/11/18 07:11:19;;;;;;;1.37;1.30;;;7.30;98.00;;;;;;5071205;28;20966;-69
2021/11/18 07:13:46;;;;;;;2.27;1.10;;;7.40;98.00;;;;;;5071246;28;20528;-69
2021/11/18 07:16:17;;;;;;;1.20;1.20;;;7.40;98.00;;;;;;5071305;28;21054;-69
2021/11/18 07:18:44;;;;;;;1.20;1.10;;;7.40;98.00;;;;;;5071399;28;20552;-69
2021/11/18 07:21:12;;;;;;;1.10;1.00;;;7.40;98.00;;;;;;5071806;28;20453;-69
2021/11/18 07:23:44;;;;;;;1.83;1.10;;;7.50;98.00;;;;;;5071408;28;20509;-69
2021/11/18 07:26:13;;;;;;;1.20;1.20;;;7.60;98.00;;;;;;5070122;28;20477;-69
2021/11/18 07:28:41;;;;;;;1.53;1.20;;;7.60;98.00;;;;;;5071451;28;20477;-69
2021/11/18 07:31:11;;;;;;;4.30;1.33;;;7.80;98.00;;;;;;5071448;28;20518;-69
2021/11/18 07:33:38;;;;;;;3.57;1.47;;;8.00;98.00;;;;;;5071419;28;20534;-70
2021/11/18 07:36:06;;;;;;;1.60;1.50;;;7.90;98.00;;;;;;5071289;28;20457;-70
2021/11/18 07:38:35;;;;;;;1.53;1.10;;;8.00;98.00;;;;;;5071453;28;20475;-70
2021/11/18 07:41:04;;;;;;;1.10;1.00;;;8.00;98.00;;;;;;5071039;28;20964;-70
2021/11/18 07:43:35;;;;;;;1.50;1.40;;;8.00;98.00;;;;;;5070458;28;20557;-70
2021/11/18 07:46:04;;;;;;;1.30;1.27;;;8.10;98.00;;;;;;5070429;28;20459;-70
2021/11/18 07:48:33;;;;;;;3.27;2.67;;;8.20;98.00;;;;;;5070624;28;20511;-70
2021/11/18 07:51:02;;;;;;;1.33;1.10;;;8.20;98.00;;;;;;5074176;28;20506;-71
2021/11/18 07:53:30;;;;;;;1.30;1.10;;;8.30;98.00;;;;;;5075069;28;20479;-71
2021/11/18 07:55:58;;;;;;;1.30;1.20;;;8.20;98.00;;;;;;5073772;28;20457;-70
2021/11/18 07:58:25;;;;;;;1.50;1.40;;;8.20;98.00;;;;;;5073510;28;20491;-70
2021/11/18 08:00:58;;;;;;;2.10;1.43;;;8.10;98.00;;;;;;5074466;28;20506;-71
2021/11/18 08:03:28;;;;;;;2.23;1.73;;;8.20;98.00;;;;;;5074977;28;20452;-70
2021/11/18 08:05:55;;;;;;;1.50;1.47;;;8.20;98.00;;;;;;5074711;28;20464;-70
2021/11/18 08:08:25;;;;;;;2.13;1.60;;;8.30;98.00;;;;;;5075002;28;20458;-70
2021/11/18 08:10:53;;;;;;;2.80;1.20;;;8.20;98.00;;;;;;5075101;28;20860;-71
2021/11/18 08:13:20;;;;;;;1.30;1.27;;;8.10;98.00;;;;;;5074634;28;20580;-71
2021/11/18 08:15:48;;;;;;;1.50;1.40;;;8.00;98.00;;;;;;5074476;28;20478;-71
2021/11/18 08:18:16;;;;;;;1.60;1.40;;;7.90;98.00;;;;;;5074619;28;20511;-70
2021/11/18 08:20:43;;;;;;;1.20;1.10;;;7.80;98.00;;;;;;5074418;28;20458;-71
2021/11/18 08:23:11;;;;;;;1.40;1.20;;;7.90;98.00;;;;;;5074295;28;20515;-71
2021/11/18 08:25:38;;;;;;;1.97;1.33;;;8.00;98.00;;;;;;5074166;28;20453;-71
2021/11/18 08:28:08;;;;;;;1.60;1.43;;;8.00;98.00;;;;;;5073600;28;20514;-71
2021/11/18 08:30:36;;;;;;;1.77;1.20;;;8.00;98.00;;;;;;5073909;28;20480;-71
2021/11/18 08:33:12;;;;;;;1.30;1.10;;;8.00;98.00;;;;;;5074273;28;20507;-70
2021/11/18 08:35:41;;;;;;;1.20;1.20;;;8.00;98.00;;;;;;5072977;28;20464;-71
2021/11/18 08:38:11;;;;;;;1.23;1.23;;;8.10;98.00;;;;;;5074131;28;20460;-71
2021/11/18 08:40:42;;;;;;;2.13;1.30;;;8.20;98.00;;;;;;5082013;28;20511;-70
2021/11/18 08:43:09;;;;;;;1.87;1.20;;;8.30;98.00;;;;;;5108185;28;20470;-70
2021/11/18 08:45:38;;;;;;;1.47;1.33;;;8.40;98.00;;;;;;5107838;28;20839;-71
2021/11/18 08:48:06;;;;;;;1.40;1.30;;;8.30;98.00;;;;;;5094675;28;20538;-70
2021/11/18 08:50:34;;;;;;;2.17;2.03;;;8.30;98.00;;;;;;5092893;28;20499;-70
2021/11/18 08:53:04;;;;;;;1.30;1.20;;;8.30;98.00;;;;;;5092463;28;20530;-71
2021/11/18 08:55:37;;;;;;;1.73;1.40;;;8.30;98.00;;;;;;5108490;28;20458;-70
2021/11/18 08:58:05;;;;;;;3.10;1.10;;;8.30;98.00;;;;;;5091391;28;20457;-71
2021/11/18 09:00:36;;;;;;;1.20;1.10;;;8.30;98.00;;;;;;5100901;28;20925;-71
2021/11/18 09:03:03;;;;;;;1.93;1.20;;;8.30;98.00;;;;;;5100851;28;20676;-71
2021/11/18 09:05:30;;;;;;;1.13;1.03;;;8.30;98.00;;;;;;5100155;28;20489;-71
2021/11/18 09:07:59;;;;;;;1.50;1.23;;;8.30;98.00;;;;;;5101264;28;20480;-69
2021/11/18 09:10:30;;;;;;;1.73;1.40;;;8.40;98.00;;;;;;5073103;28;20468;-70
2021/11/18 09:12:58;;;;;;;1.40;1.40;;;8.30;98.00;;;;;;5092544;28;20514;-71
2021/11/18 09:15:29;;;;;;;1.93;1.50;;;8.40;98.00;;;;;;5100236;28;20952;-71
2021/11/18 09:17:58;;;;;;;1.60;1.20;;;8.40;98.00;;;;;;5091958;28;20488;-71
2021/11/18 09:20:27;;;;;;;2.80;1.20;;;8.30;98.00;;;;;;5092236;28;20449;-70
2021/11/18 09:22:58;;;;;;;1.73;1.13;;;8.40;98.00;;;;;;5099801;28;20462;-71
2021/11/18 09:25:29;;;;;;;1.53;1.30;;;8.30;98.00;;;;;;5108979;28;20820;-71
2021/11/18 09:27:59;;;;;;;1.10;1.00;;;8.30;98.00;;;;;;5099862;28;20856;-70
2021/11/18 09:30:28;;;;;;;1.20;1.20;;;8.80;98.00;;;;;;5101440;28;20465;-70
2021/11/18 09:32:57;;;;;;;2.47;1.47;;;9.80;98.00;;;;;;5099314;28;20474;-71
2021/11/18 09:35:26;;;;;;;1.40;1.30;;;10.90;98.00;;;;;;5091570;28;20493;-71
2021/11/18 09:37:55;;;;;;;1.93;1.77;;;11.00;98.00;;;;;;5100154;28;20502;-71
2021/11/18 09:40:27;;;;;;;4.20;1.47;;;11.00;98.00;;;;;;5100309;28;20480;-71
2021/11/18 09:43:10;;;;;;;1.57;1.53;;;10.90;98.00;;;;;;5099821;28;20462;-71
2021/11/18 09:45:41;;;;;;;1.50;1.40;;;10.60;98.00;;;;;;5102560;28;20457;-71
2021/11/18 09:48:34;;;;;;;1.80;1.43;;;10.30;98.00;;;;;;5105283;28;20466;-71
2021/11/18 09:52:03;;;;;;;1.90;1.40;;;10.30;98.00;;;;;;5097897;28;20455;-71
2021/11/18 09:54:44;;;;;;;1.27;1.13;;;10.20;98.00;;;;;;5027938;28;20919;-71
2021/11/18 09:57:36;;;;;;;2.00;1.50;;;10.10;98.00;;;;;;5039785;28;20655;-71
2021/11/18 10:00:13;;;;;;;1.20;1.00;;;10.30;98.00;;;;;;5079645;28;20570;-71
2021/11/18 10:03:07;;;;;;;1.20;1.10;;;10.40;98.00;;;;;;5099750;28;20453;-71
2021/11/18 10:05:40;;;;;;;2.27;1.47;;;10.40;98.00;;;;;;5104564;28;20520;-71
2021/11/18 10:08:11;;;;;;;1.20;1.10;;;10.30;98.00;;;;;;5099606;28;20457;-70
2021/11/18 10:10:44;;;;;;;2.13;1.83;;;10.30;98.00;;;;;;5095859;28;20453;-71
2021/11/18 10:13:30;;;;;;;2.07;1.93;;;10.20;98.00;;;;;;5100892;28;21015;-71
2021/11/18 10:16:03;;;;;;;1.20;1.17;;;10.20;98.00;;;;;;5098201;28;20512;-71
2021/11/18 10:18:35;;;;;;;1.63;1.40;;;10.10;98.00;;;;;;5097748;28;20860;-71
2021/11/18 10:21:07;;;;;;;1.40;1.40;;;10.00;98.00;;;;;;5099369;28;20462;-71
2021/11/18 10:23:34;;;;;;;2.07;1.00;;;9.70;98.00;;;;;;5107105;28;20949;-71
2021/11/18 10:26:05;;;;;;;2.00;1.23;;;9.60;98.00;;;;;;5089968;28;20455;-71
2021/11/18 10:28:46;;;;;;;2.10;1.50;;;9.70;98.00;;;;;;5090295;28;21000;-71
2021/11/18 10:31:23;;;;;;;4.90;1.57;;;9.80;98.00;;;;;;5094568;28;20950;-71
2021/11/18 10:34:05;;;;;;;1.50;1.43;;;9.90;98.00;;;;;;5106892;28;20497;-70
2021/11/18 10:37:01;;;;;;;1.30;1.30;;;10.00;98.00;;;;;;5107868;28;20463;-70
2021/11/18 10:39:50;;;;;;;2.50;1.60;;;10.00;98.00;;;;;;5090608;28;20900;-71
2021/11/18 10:42:32;;;;;;;1.40;1.40;;;10.00;98.00;;;;;;5083743;28;20460;-71
2021/11/18 10:45:07;;;;;;;1.43;1.20;;;10.10;98.00;;;;;;5099731;28;20531;-71
2021/11/18 10:47:39;;;;;;;1.20;1.20;;;10.10;98.00;;;;;;5107970;28;20449;-71
2021/11/18 10:50:18;;;;;;;1.87;1.33;;;10.00;98.00;;;;;;5093227;28;20610;-71
2021/11/18 10:52:48;;;;;;;1.93;1.20;;;9.90;98.00;;;;;;5099054;28;20478;-71
2021/11/18 10:55:19;;;;;;;1.40;1.20;;;9.90;98.00;;;;;;5090349;28;20863;-71
2021/11/18 10:58:00;;;;;;;1.20;1.07;;;9.90;98.00;;;;;;5090123;28;20540;-71
2021/11/18 11:00:31;;;;;;;2.60;1.37;;;9.90;98.00;;;;;;5098106;28;20456;-71
2021/11/18 11:03:00;;;;;;;1.20;0.97;;;9.90;98.00;;;;;;5099516;28;20453;-71
2021/11/18 11:05:38;;;;;;;2.37;1.97;;;9.70;98.00;;;;;;5107915;28;20447;-71
2021/11/18 11:08:25;;;;;;;1.93;1.83;;;9.50;98.00;;;;;;5097892;28;20514;-71
2021/11/18 11:10:57;;;;;;;1.20;1.20;;;9.40;98.00;;;;;;5089684;28;20485;-71
2021/11/18 11:13:41;;;;;;;1.20;1.00;;;9.30;98.00;;;;;;5098719;28;20990;-71
2021/11/18 11:16:42;;;;;;;1.50;1.40;;;9.40;98.00;;;;;;5107637;28;20459;-71
2021/11/18 11:19:36;;;;;;;1.20;1.10;;;9.40;98.00;;;;;;5099149;28;20545;-71
2021/11/18 11:22:09;;;;;;;1.20;1.00;;;9.40;98.00;;;;;;5094530;28;20458;-70
2021/11/18 11:25:04;;;;;;;2.90;2.20;;;9.50;98.00;;;;;;5095600;28;20856;-71
2021/11/18 11:27:54;;;;;;;1.20;1.10;;;9.40;98.00;;;;;;5101928;28;20454;-71
2021/11/18 11:30:26;;;;;;;1.60;1.43;;;9.30;98.00;;;;;;5085673;28;20450;-71
2021/11/18 11:32:58;;;;;;;1.30;1.30;;;9.30;98.00;;;;;;5110772;28;20483;-71
2021/11/18 11:35:49;;;;;;;3.60;2.37;;;9.40;98.00;;;;;;5102882;28;21009;-70
2021/11/18 11:38:37;;;;;;;1.40;1.23;;;9.40;98.00;;;;;;5094149;28;20520;-71
2021/11/18 11:41:36;;;;;;;1.37;1.10;;;9.40;98.00;;;;;;5100753;28;20465;-71
2021/11/18 11:44:13;;;;;;;1.30;1.10;;;9.50;98.00;;;;;;5086375;28;20535;-71
2021/11/18 11:46:48;;;;;;;1.40;1.27;;;9.60;98.00;;;;;;5109689;28;21017;-71
2021/11/18 11:49:32;;;;;;;1.30;1.20;;;9.80;98.00;;;;;;5107278;28;20518;-71
2021/11/18 11:52:22;;;;;;;1.30;1.10;;;9.90;98.00;;;;;;5105513;28;20480;-71
2021/11/18 11:55:16;;;;;;;1.20;1.10;;;9.90;98.00;;;;;;5100970;28;20527;-71
2021/11/18 11:57:48;;;;;;;1.20;1.10;;;9.70;98.00;;;;;;5086791;28;21153;-71
2021/11/18 12:00:23;;;;;;;1.63;1.23;;;9.60;98.00;;;;;;5093185;28;20456;-71
2021/11/18 12:03:15;;;;;;;2.53;1.50;;;9.60;98.00;;;;;;5101059;28;20551;-71
2021/11/18 12:05:52;;;;;;;1.20;1.10;;;9.60;98.00;;;;;;5102330;28;20512;-71
2021/11/18 12:08:29;;;;;;;1.50;1.30;;;9.60;98.00;;;;;;5092789;28;20536;-71
2021/11/18 12:11:03;;;;;;;1.20;1.10;;;9.60;98.00;;;;;;5092595;28;20461;-71
2021/11/18 12:13:44;;;;;;;1.70;1.13;;;9.60;98.00;;;;;;5094287;28;20492;-71
2021/11/18 12:16:16;;;;;;;3.10;1.97;;;9.60;98.00;;;;;;5094812;28;21091;-71
2021/11/18 12:18:46;;;;;;;1.30;1.23;;;9.50;98.00;;;;;;5093989;28;20897;-71
2021/11/18 12:21:17;;;;;;;1.93;1.50;;;9.40;98.00;;;;;;5093085;28;20953;-71
2021/11/18 12:24:08;;;;;;;2.27;1.20;;;9.40;98.00;;;;;;5084420;28;20507;-72
2021/11/18 12:27:04;;;;;;;1.30;1.30;;;9.40;98.00;;;;;;5096122;28;20822;-71
2021/11/18 12:29:37;;;;;;;1.33;1.10;;;9.40;98.00;;;;;;5097041;28;20466;-70
2021/11/18 12:32:35;;;;;;;1.20;1.10;;;9.50;98.00;;;;;;5093549;28;20459;-71
2021/11/18 12:36:02;;;;;;;1.70;1.20;;;9.50;98.00;;;;;;5093396;28;20996;-71
2021/11/18 12:38:40;;;;;;;1.20;1.17;;;9.50;98.00;;;;;;5093629;28;20467;-71
2021/11/18 12:41:31;;;;;;;2.53;1.60;;;9.50;98.00;;;;;;5093534;28;20456;-71
2021/11/18 12:44:21;;;;;;;3.00;1.77;;;9.50;98.00;;;;;;5093573;28;20454;-71
2021/11/18 12:47:01;;;;;;;1.20;1.10;;;9.60;98.00;;;;;;5091677;28;20527;-71
2021/11/18 12:50:11;;;;;;;1.20;1.10;;;9.70;98.00;;;;;;5093826;28;20973;-71
2021/11/18 12:52:42;;;;;;;1.30;1.10;;;9.80;98.00;;;;;;5093635;28;20472;-71
2021/11/18 12:55:22;;;;;;;1.20;1.10;;;9.80;98.00;;;;;;5093154;28;21070;-71
2021/11/18 12:57:52;;;;;;;2.20;1.30;;;9.90;98.00;;;;;;5093058;28;20463;-70
2021/11/18 13:00:39;;;;;;;3.70;1.60;;;9.90;98.00;;;;;;5093481;28;20523;-71
2021/11/18 13:03:08;;;;;;;1.20;1.07;;;9.90;98.00;;;;;;5093526;28;20492;-71
2021/11/18 13:05:54;;;;;;;1.40;1.40;;;10.00;98.00;;;;;;5093507;28;20853;-71
2021/11/18 13:08:55;;;;;;;1.20;1.00;;;10.00;98.00;;;;;;5093566;28;20520;-71
2021/11/18 13:11:58;;;;;;;2.40;1.40;;;10.20;98.00;;;;;;5093237;28;20532;-71
2021/11/18 13:14:50;;;;;;;1.60;1.50;;;10.30;98.00;;;;;;5102695;28;20585;-71
2021/11/18 13:17:34;;;;;;;1.20;1.10;;;10.30;98.00;;;;;;5113686;28;20538;-71
2021/11/18 13:20:24;;;;;;;1.70;1.20;;;10.40;98.00;;;;;;5113955;28;21037;-70